Time;durP1;ratioP1;P1;durP2;ratioP2;P2;SDS_P1;SDS_P2;PMS_P1;PMS_P2;Temp;Humidity;BMP_temperature;BMP_pressure;BME280_temperature;BME280_humidity;BME280_pressure;Samples;Min_cycle;Max_cycle;Signal;HPM_P1;HPM_P2
2023/03/08 00:00:23;;;;;;;11.43;4.47;;;;;;;-148.88;91.75;75639.09;5035110;28;20025;-85
2023/03/08 00:02:49;;;;;;;12.63;4.72;;;;;;;-148.88;91.93;75649.25;5035539;28;20368;-86
2023/03/08 00:05:15;;;;;;;8.93;4.32;;;;;;;-148.88;91.97;75626.91;5035287;28;20025;-86
2023/03/08 00:07:41;;;;;;;10.40;4.53;;;;;;;-148.88;90.56;75588.34;5035401;28;20037;-86
2023/03/08 00:10:06;;;;;;;11.07;5.38;;;;;;;-148.88;91.40;75614.72;5036285;28;20390;-87
2023/03/08 00:12:32;;;;;;;13.05;5.18;;;;;;;-148.88;91.67;75622.84;5034758;28;20082;-86
2023/03/08 00:14:57;;;;;;;13.98;5.53;;;;;;;-148.88;93.36;75647.22;5052814;28;20033;-86
2023/03/08 00:17:23;;;;;;;12.88;5.35;;;;;;;-148.88;93.02;75659.41;5035013;28;20071;-84
2023/03/08 00:19:50;;;;;;;13.60;5.80;;;;;;;-148.88;92.05;75635.03;5053088;28;20542;-86
2023/03/08 00:22:15;;;;;;;13.13;5.80;;;;;;;-148.88;92.77;75651.28;5052617;28;20029;-86
2023/03/08 00:24:41;;;;;;;15.07;5.80;;;;;;;-148.88;91.78;75624.88;5034905;28;20038;-87
2023/03/08 00:27:06;;;;;;;16.48;6.03;;;;;;;-148.88;92.09;75639.09;5052740;28;20395;-86
2023/03/08 00:29:31;;;;;;;12.35;5.32;;;;;;;-148.88;92.88;75673.63;5054494;28;20028;-86
2023/03/08 00:31:57;;;;;;;13.23;5.13;;;;;;;-148.88;94.79;75704.09;5035196;28;20025;-86
2023/03/08 00:34:22;;;;;;;12.77;5.80;;;;;;;-148.88;94.53;75712.22;5057133;28;20029;-85
2023/03/08 00:36:47;;;;;;;14.23;6.63;;;;;;;-148.88;94.46;75704.09;5039079;28;20036;-87
2023/03/08 00:39:15;;;;;;;12.70;5.15;;;;;;;-148.88;94.42;75708.16;5056967;28;20506;-86
2023/03/08 00:41:41;;;;;;;14.10;5.85;;;;;;;-148.88;94.47;75712.22;5039686;28;20024;-86
2023/03/08 00:44:06;;;;;;;12.30;5.38;;;;;;;-148.88;94.42;75691.91;5039608;28;20025;-86
2023/03/08 00:46:31;;;;;;;11.18;4.75;;;;;;;-148.88;93.37;75659.41;5040026;28;20025;-87
2023/03/08 00:48:57;;;;;;;14.23;4.75;;;;;;;-148.88;92.99;75673.63;5056951;28;20032;-86
2023/03/08 00:51:22;;;;;;;11.18;5.45;;;;;;;-148.88;92.98;75667.53;5038902;28;20036;-86
2023/03/08 00:53:48;;;;;;;14.77;5.97;;;;;;;-148.88;92.64;75685.81;5038409;28;20021;-86
2023/03/08 00:56:14;;;;;;;12.73;5.35;;;;;;;-148.88;92.88;75695.97;5056010;28;20438;-86
2023/03/08 00:58:40;;;;;;;13.32;4.88;;;;;;;-148.88;92.18;75669.56;5056291;28;20037;-86
2023/03/08 01:01:08;;;;;;;12.55;4.85;;;;;;;-148.88;91.46;75655.34;5038500;28;20024;-85
2023/03/08 01:03:33;;;;;;;13.05;5.53;;;;;;;-148.88;91.71;75659.41;5055764;28;20112;-86
2023/03/08 01:06:06;;;;;;;12.52;5.25;;;;;;;-148.88;91.82;75663.47;5056396;28;20060;-86
2023/03/08 01:08:31;;;;;;;11.45;4.18;;;;;;;-148.88;92.87;75675.66;5038440;28;20380;-85
2023/03/08 01:10:58;;;;;;;10.95;5.22;;;;;;;-148.88;91.78;75657.38;5055841;28;20475;-86
2023/03/08 01:13:26;;;;;;;9.52;4.40;;;;;;;-148.88;92.10;75683.78;5055984;28;20107;-86
2023/03/08 01:15:52;;;;;;;8.82;4.40;;;;;;;-148.88;92.61;75744.72;5056516;28;20025;-86
2023/03/08 01:18:17;;;;;;;10.43;4.35;;;;;;;-148.88;92.95;75734.56;5056229;28;20064;-86
2023/03/08 01:20:42;;;;;;;9.45;4.25;;;;;;;-148.88;91.73;75718.31;5038392;28;20418;-85
2023/03/08 01:23:08;;;;;;;7.63;3.40;;;;;;;-148.88;91.37;75687.84;5037493;28;20017;-85
2023/03/08 01:25:34;;;;;;;11.70;3.95;;;;;;;-148.88;90.24;75667.53;5038161;28;20537;-85
2023/03/08 01:28:00;;;;;;;9.30;3.85;;;;;;;-148.88;90.27;75695.97;5038291;28;20029;-86
2023/03/08 01:30:25;;;;;;;7.75;3.60;;;;;;;-148.88;89.76;75683.78;5056070;28;20036;-85
2023/03/08 01:32:51;;;;;;;8.85;3.58;;;;;;;-148.88;89.45;75702.06;5037691;28;20025;-85
2023/03/08 01:35:16;;;;;;;8.38;3.80;;;;;;;-148.88;90.39;75708.16;5056267;28;20135;-86
2023/03/08 01:37:42;;;;;;;8.40;4.03;;;;;;;-148.88;91.41;75702.06;5037741;28;20037;-86
2023/03/08 01:40:08;;;;;;;10.55;3.67;;;;;;;-148.88;91.24;75718.31;5038204;28;20029;-86
2023/03/08 01:42:36;;;;;;;8.57;3.80;;;;;;;-148.88;91.98;75720.34;5056172;28;20078;-85
2023/03/08 01:45:04;;;;;;;9.77;3.83;;;;;;;-148.88;90.91;75691.91;5056515;28;20099;-86
2023/03/08 01:47:32;;;;;;;6.90;3.80;;;;;;;-148.88;91.06;75702.06;5055217;28;20098;-85
2023/03/08 01:50:03;;;;;;;10.30;3.55;;;;;;;-148.88;91.85;75732.53;5055504;28;20041;-85
2023/03/08 01:52:37;;;;;;;9.77;3.20;;;;;;;-148.88;92.04;75767.06;5037287;28;20028;-85
2023/03/08 01:55:08;;;;;;;7.55;2.42;;;;;;;-148.88;90.80;75726.44;5055529;28;20025;-86
2023/03/08 01:57:37;;;;;;;7.32;3.25;;;;;;;-148.88;89.95;75716.28;5037502;28;20024;-85
2023/03/08 02:00:16;;;;;;;6.65;2.95;;;;;;;-148.88;90.85;75720.34;5055026;28;20048;-85
2023/03/08 02:02:48;;;;;;;8.75;3.20;;;;;;;-148.88;90.90;75724.41;5037661;28;20025;-84
2023/03/08 02:05:17;;;;;;;7.55;3.40;;;;;;;-148.88;90.48;75698.00;5037180;28;20437;-85
2023/03/08 02:07:42;;;;;;;8.10;3.03;;;;;;;-148.88;91.45;75720.34;5056253;28;20021;-86
2023/03/08 02:10:10;;;;;;;8.85;3.83;;;;;;;-148.88;90.90;75691.91;5037595;28;20025;-86
2023/03/08 02:12:36;;;;;;;9.35;3.60;;;;;;;-148.88;91.30;75730.50;5057563;28;20037;-86
2023/03/08 02:15:04;;;;;;;7.63;3.97;;;;;;;-148.88;92.17;75716.28;5039439;28;20020;-86
2023/03/08 02:17:29;;;;;;;8.52;3.38;;;;;;;-148.88;91.97;75730.50;5057149;28;20021;-86
2023/03/08 02:20:07;;;;;;;9.95;3.33;;;;;;;-148.88;92.82;75752.84;5057568;28;20027;-86
2023/03/08 02:22:37;;;;;;;10.93;3.53;;;;;;;-148.88;91.47;75710.19;5038931;28;20021;-86
2023/03/08 02:25:15;;;;;;;8.95;3.33;;;;;;;-148.88;91.21;75744.72;5058471;28;20376;-86
2023/03/08 02:27:40;;;;;;;8.80;3.47;;;;;;;-148.88;90.95;75722.38;5057099;28;20031;-85
2023/03/08 02:30:07;;;;;;;8.95;3.30;;;;;;;-148.88;91.34;75720.34;5055096;28;20021;-85
2023/03/08 02:32:32;;;;;;;7.15;3.13;;;;;;;-148.88;91.09;75722.38;5055076;28;20024;-84
2023/03/08 02:34:58;;;;;;;12.05;3.45;;;;;;;-148.88;91.13;75736.59;5054925;28;20020;-85
2023/03/08 02:37:23;;;;;;;6.18;3.38;;;;;;;-148.88;91.49;75732.53;5038161;28;20029;-84
2023/03/08 02:39:49;;;;;;;9.05;3.83;;;;;;;-148.88;91.91;75704.09;5055529;28;20025;-86
2023/03/08 02:45:36;;;;;;;10.68;4.35;;;;;;;-148.88;93.61;75734.56;5054887;28;20043;-86
2023/03/08 02:48:03;;;;;;;10.38;4.93;;;;;;;-148.88;92.35;75695.97;5036548;28;20025;-86
2023/03/08 02:50:28;;;;;;;10.73;4.63;;;;;;;-148.88;91.44;75673.63;5036311;28;20029;-86
2023/03/08 02:52:53;;;;;;;9.90;4.68;;;;;;;-148.88;92.16;75704.09;5036458;28;20021;-85
2023/03/08 02:55:19;;;;;;;9.80;4.78;;;;;;;-148.88;91.69;75671.59;5036402;28;20040;-85
2023/03/08 02:57:44;;;;;;;14.02;5.72;;;;;;;-148.88;90.97;75667.53;5053935;28;20025;-85
2023/03/08 03:00:10;;;;;;;10.85;4.97;;;;;;;-148.88;92.53;75693.94;5036816;28;20047;-85
2023/03/08 03:02:36;;;;;;;12.27;5.00;;;;;;;-148.88;90.95;75651.28;5054207;28;20029;-85
2023/03/08 03:05:06;;;;;;;15.23;4.95;;;;;;;-148.88;90.58;75647.22;5054006;28;20028;-86
2023/03/08 03:07:34;;;;;;;12.93;5.53;;;;;;;-148.88;91.02;75671.59;5053711;28;20090;-85
2023/03/08 03:10:00;;;;;;;11.63;5.15;;;;;;;-148.88;90.09;75626.91;5038093;28;20021;-86
2023/03/08 03:12:25;;;;;;;12.10;5.15;;;;;;;-148.88;92.34;75687.84;5040750;28;20024;-85
2023/03/08 03:14:50;;;;;;;11.98;5.40;;;;;;;-148.88;91.28;75624.88;5053606;28;20032;-85
2023/03/08 03:17:16;;;;;;;13.85;4.72;;;;;;;-148.88;90.31;75612.69;5053692;28;20028;-84
2023/03/08 03:19:41;;;;;;;16.42;6.28;;;;;;;-148.88;90.30;75620.81;5036463;28;20493;-84
2023/03/08 03:22:06;;;;;;;9.98;5.13;;;;;;;-148.88;89.80;75594.44;5035767;28;20509;-86
2023/03/08 03:24:31;;;;;;;13.80;6.18;;;;;;;-148.88;89.41;75596.44;5035848;28;20025;-85
2023/03/08 03:26:57;;;;;;;16.23;6.85;;;;;;;-148.88;91.25;75635.03;5053792;28;20027;-85
2023/03/08 03:29:22;;;;;;;14.10;6.22;;;;;;;-148.88;89.82;75624.88;5035784;28;20550;-83
2023/03/08 03:31:47;;;;;;;12.52;5.60;;;;;;;-148.88;89.94;75602.53;5036075;28;20021;-85
2023/03/08 03:34:13;;;;;;;14.50;6.90;;;;;;;-148.88;89.89;75612.69;5053885;28;20025;-84
2023/03/08 03:36:38;;;;;;;13.40;5.60;;;;;;;-148.88;90.92;75647.22;5036413;28;20434;-85
2023/03/08 03:39:04;;;;;;;12.85;5.78;;;;;;;-148.88;90.19;75630.97;5035613;28;20108;-84
2023/03/08 03:41:29;;;;;;;15.73;6.93;;;;;;;-148.88;91.25;75659.41;5053664;28;20438;-85
2023/03/08 03:43:54;;;;;;;14.32;6.25;;;;;;;-148.88;91.63;75663.47;5035880;28;20057;-84
2023/03/08 03:46:20;;;;;;;16.60;6.55;;;;;;;-148.88;91.99;75695.97;5035992;28;20058;-85
2023/03/08 03:48:46;;;;;;;21.98;8.05;;;;;;;-148.88;90.90;75655.34;5035600;28;20067;-85
2023/03/08 03:51:17;;;;;;;15.15;6.18;;;;;;;-148.88;90.19;75645.19;5053295;28;20552;-84
2023/03/08 03:53:43;;;;;;;17.67;6.28;;;;;;;-148.88;91.14;75706.13;5039858;28;20084;-86
2023/03/08 03:56:20;;;;;;;15.25;6.75;;;;;;;-148.88;90.86;75663.47;5058600;28;20029;-86
2023/03/08 03:58:46;;;;;;;16.23;7.00;;;;;;;-148.88;91.29;75677.69;5040121;28;20029;-86
2023/03/08 04:01:19;;;;;;;18.73;7.50;;;;;;;-148.88;92.08;75716.28;5053430;28;20115;-85
2023/03/08 04:03:45;;;;;;;20.58;7.00;;;;;;;-148.88;91.34;75669.56;5036072;28;20075;-85
2023/03/08 04:06:18;;;;;;;13.77;6.22;;;;;;;-148.88;91.66;75704.09;5035550;28;20028;-84
2023/03/08 04:08:43;;;;;;;17.83;7.28;;;;;;;-148.88;90.85;75681.75;5056365;28;20391;-85
2023/03/08 04:11:12;;;;;;;16.95;6.20;;;;;;;-148.88;90.13;75655.34;5057786;28;20108;-85
2023/03/08 04:13:38;;;;;;;14.95;6.13;;;;;;;-148.88;90.07;75647.22;5056826;28;20100;-84
2023/03/08 04:16:15;;;;;;;14.60;5.82;;;;;;;-148.88;89.94;75649.25;5039417;28;20067;-85
2023/03/08 04:18:40;;;;;;;16.05;7.03;;;;;;;-148.88;90.78;75669.56;5039432;28;20056;-84
2023/03/08 04:21:06;;;;;;;14.90;6.70;;;;;;;-148.88;90.29;75647.22;5039371;28;20459;-84
2023/03/08 04:23:32;;;;;;;15.80;5.70;;;;;;;-148.88;89.82;75626.91;5039654;28;20025;-85
2023/03/08 04:25:58;;;;;;;14.88;5.80;;;;;;;-148.88;89.53;75641.13;5057032;28;20509;-86
2023/03/08 04:28:23;;;;;;;15.13;6.80;;;;;;;-148.88;90.14;75687.84;5056528;28;20049;-86
2023/03/08 04:30:49;;;;;;;15.63;5.95;;;;;;;-148.88;90.32;75643.16;5039547;28;20029;-85
2023/03/08 04:33:14;;;;;;;15.07;6.57;;;;;;;-148.88;90.90;75704.09;5056559;28;20037;-86
2023/03/08 04:35:39;;;;;;;15.80;6.78;;;;;;;-148.88;92.01;75746.75;5056559;28;20032;-85
2023/03/08 04:38:05;;;;;;;14.50;5.78;;;;;;;-148.88;91.75;75724.41;5038601;28;20063;-86
2023/03/08 04:40:31;;;;;;;17.25;6.38;;;;;;;-148.88;91.18;75698.00;5038569;28;20025;-85
2023/03/08 04:42:57;;;;;;;15.00;6.15;;;;;;;-148.88;90.95;75732.53;5039454;28;20024;-85
2023/03/08 04:45:22;;;;;;;16.73;7.03;;;;;;;-148.88;91.10;75720.34;5057193;28;20035;-87
2023/03/08 04:47:48;;;;;;;17.30;6.93;;;;;;;-148.88;90.11;75720.34;5039705;28;20021;-86
2023/03/08 04:50:13;;;;;;;16.77;6.40;;;;;;;-148.88;90.58;75689.88;5038839;28;20033;-85
2023/03/08 04:52:38;;;;;;;17.52;6.13;;;;;;;-148.88;90.85;75742.69;5038744;28;20033;-84
2023/03/08 04:55:05;;;;;;;18.35;6.82;;;;;;;-148.88;90.13;75675.66;5038399;28;20056;-84
2023/03/08 04:57:30;;;;;;;17.38;6.40;;;;;;;-148.88;89.72;75671.59;5057134;28;20052;-84
2023/03/08 04:59:56;;;;;;;17.65;7.00;;;;;;;-148.88;90.05;75681.75;5038470;28;20091;-85
2023/03/08 05:02:22;;;;;;;17.63;5.95;;;;;;;-148.88;89.39;75659.41;5038750;28;20388;-83
2023/03/08 05:04:47;;;;;;;19.05;6.95;;;;;;;-148.88;90.01;75659.41;5038769;28;20024;-85
2023/03/08 05:07:13;;;;;;;20.27;7.35;;;;;;;-148.88;88.90;75630.97;5042636;28;20021;-85
2023/03/08 05:09:38;;;;;;;14.48;6.47;;;;;;;-148.88;88.86;75626.91;5040176;28;20063;-85
2023/03/08 05:12:07;;;;;;;19.00;7.10;;;;;;;-148.88;88.74;75606.59;5039723;28;20025;-85
2023/03/08 05:14:32;;;;;;;14.80;6.68;;;;;;;-148.88;88.41;75598.47;5039485;28;20055;-84
2023/03/08 05:16:58;;;;;;;21.17;6.75;;;;;;;-148.88;88.77;75592.38;5039613;28;20384;-85
2023/03/08 05:19:23;;;;;;;17.25;7.28;;;;;;;-148.88;88.33;75582.22;5039542;28;20056;-83
2023/03/08 05:21:49;;;;;;;19.08;7.18;;;;;;;-148.88;89.70;75630.97;5038507;28;20032;-84
2023/03/08 05:24:17;;;;;;;15.82;7.03;;;;;;;-148.88;90.24;75630.97;5038616;28;20024;-83
2023/03/08 05:26:42;;;;;;;19.92;7.57;;;;;;;-148.88;89.41;75592.38;5038875;28;20078;-84
2023/03/08 05:29:07;;;;;;;18.90;7.00;;;;;;;-148.88;89.80;75604.56;5040185;28;20104;-84
2023/03/08 05:31:35;;;;;;;22.10;7.90;;;;;;;-148.88;90.21;75618.78;5038965;28;20394;-85
2023/03/08 05:34:00;;;;;;;22.48;8.57;;;;;;;-148.88;90.09;75618.78;5041550;28;20032;-85
2023/03/08 05:36:26;;;;;;;20.83;8.00;;;;;;;-148.88;89.84;75610.66;5044525;28;20506;-85
2023/03/08 05:38:55;;;;;;;20.83;8.10;;;;;;;-148.88;89.63;75610.66;5042105;28;20021;-85
2023/03/08 05:41:20;;;;;;;27.77;9.13;;;;;;;-148.88;90.43;75633.00;5060274;28;20029;-85
2023/03/08 05:43:46;;;;;;;23.77;8.77;;;;;;;-148.88;90.72;75630.97;5040918;28;20021;-85
2023/03/08 05:46:17;;;;;;;23.17;7.90;;;;;;;-148.88;90.79;75635.03;5040221;28;20028;-84
2023/03/08 05:48:43;;;;;;;24.30;8.98;;;;;;;-148.88;90.12;75608.63;5059248;28;20074;-83
2023/03/08 05:51:11;;;;;;;25.15;9.88;;;;;;;-148.88;91.17;75635.03;5039232;28;20149;-85
2023/03/08 05:53:40;;;;;;;27.40;10.82;;;;;;;-148.88;91.30;75626.91;5056502;28;20028;-85
2023/03/08 05:56:12;;;;;;;30.35;10.82;;;;;;;-148.88;91.07;75643.16;5038641;28;20025;-84
2023/03/08 05:58:39;;;;;;;28.00;10.77;;;;;;;-148.88;90.92;75633.00;5038067;28;20484;-84
2023/03/08 06:01:18;;;;;;;33.85;12.68;;;;;;;-148.88;90.29;75622.84;5039909;28;20459;-84
2023/03/08 06:03:44;;;;;;;30.48;10.63;;;;;;;-148.88;90.37;75598.47;5056423;28;20094;-82
2023/03/08 06:06:10;;;;;;;30.60;11.25;;;;;;;-148.88;89.48;75580.22;5037739;28;20025;-84
2023/03/08 06:08:35;;;;;;;30.35;11.50;;;;;;;-148.88;89.70;75584.25;5039506;28;20470;-84
2023/03/08 06:11:01;;;;;;;26.15;10.48;;;;;;;-148.88;89.18;75568.03;5037849;28;20100;-86
2023/03/08 06:13:29;;;;;;;32.53;11.07;;;;;;;-148.88;89.05;75570.03;5056849;28;20035;-87
2023/03/08 06:15:56;;;;;;;28.35;10.80;;;;;;;-148.88;88.79;75555.84;5036865;28;20104;-87
2023/03/08 06:18:25;;;;;;;32.97;12.15;;;;;;;-148.88;89.36;75561.94;5036816;28;20121;-87
2023/03/08 06:21:20;;;;;;;35.13;11.88;;;;;;;-148.88;88.57;75570.03;5037813;28;20035;-88
2023/03/08 06:23:46;;;;;;;30.13;10.70;;;;;;;-148.88;89.11;75557.88;5036967;28;20025;-87
2023/03/08 06:26:14;;;;;;;30.92;11.23;;;;;;;-148.88;89.04;75541.63;5037119;28;20025;-88
2023/03/08 06:28:43;;;;;;;31.75;11.63;;;;;;;-148.88;89.00;75543.66;5037129;28;20028;-88
2023/03/08 06:31:23;;;;;;;;;;;;;;;-148.88;88.17;75509.13;5037463;28;20479;-86
2023/03/08 06:33:49;;;;;;;30.85;11.65;;;;;;;-148.88;87.45;75507.09;5054010;28;19948;-87
2023/03/08 06:36:20;;;;;;;30.40;11.27;;;;;;;-148.88;87.85;75492.88;5054184;28;20021;-87
2023/03/08 06:38:46;;;;;;;30.50;11.32;;;;;;;-148.88;87.72;75480.69;5037676;28;20021;-86
2023/03/08 06:41:13;;;;;;;29.05;12.45;;;;;;;-148.88;87.55;75488.81;5037161;28;20048;-88
2023/03/08 06:43:39;;;;;;;31.02;12.68;;;;;;;-148.88;87.59;75484.75;5036747;28;20447;-88
2023/03/08 06:46:15;;;;;;;34.35;12.90;;;;;;;-148.88;87.14;75488.81;5036549;28;20048;-88
2023/03/08 06:48:44;;;;;;;28.50;10.93;;;;;;;-148.88;87.55;75507.09;5037269;28;20029;-87
2023/03/08 06:51:10;;;;;;;30.23;11.65;;;;;;;-148.88;88.04;75507.09;5053959;28;20028;-87
2023/03/08 06:53:36;;;;;;;33.35;12.02;;;;;;;-148.88;88.90;75529.44;5036503;28;20028;-88
2023/03/08 06:56:55;;;;;;;32.85;12.38;;;;;;;-148.88;90.43;75566.00;5036588;28;20533;-88
2023/03/08 06:59:20;;;;;;;34.13;13.30;;;;;;;-148.88;91.97;75588.34;5036263;28;20035;-88
2023/03/08 07:01:48;;;;;;;36.35;12.40;;;;;;;-148.88;92.13;75574.13;5036799;28;20025;-87
2023/03/08 07:04:13;;;;;;;34.38;12.88;;;;;;;-148.88;92.75;75590.34;5037233;28;20025;-87
2023/03/08 07:06:39;;;;;;;39.58;14.77;;;;;;;-148.88;93.10;75592.38;5036613;28;20036;-88
2023/03/08 07:09:04;;;;;;;42.42;15.20;;;;;;;-148.88;94.26;75614.72;5036179;28;20021;-89
2023/03/08 07:11:31;;;;;;;42.80;15.55;;;;;;;-148.88;94.67;75622.84;5036077;28;20021;-88
2023/03/08 07:13:59;;;;;;;36.97;13.65;;;;;;;-148.88;94.24;75594.44;5035880;28;20029;-89
2023/03/08 07:16:24;;;;;;;41.72;15.15;;;;;;;-148.88;93.77;75608.63;5036399;28;20123;-88
2023/03/08 07:18:50;;;;;;;38.35;14.40;;;;;;;-148.88;94.27;75578.19;5036504;28;20071;-89
2023/03/08 07:21:15;;;;;;;48.30;17.13;;;;;;;-148.88;95.61;75647.22;5036383;28;20079;-90
2023/03/08 07:23:43;;;;;;;46.17;15.88;;;;;;;-148.88;94.98;75606.59;5035800;28;20021;-88
2023/03/08 07:26:17;;;;;;;48.65;16.63;;;;;;;-148.88;95.57;75606.59;5035516;28;20017;-88
2023/03/08 07:28:43;;;;;;;50.72;16.30;;;;;;;-148.88;94.30;75598.47;5036383;28;20089;-88
2023/03/08 07:31:14;;;;;;;47.38;16.17;;;;;;;-148.88;94.22;75557.88;5035977;28;20465;-88
2023/03/08 07:33:39;;;;;;;50.45;17.90;;;;;;;-148.88;94.21;75580.22;5035839;28;20551;-87
2023/03/08 07:36:08;;;;;;;55.75;18.83;;;;;;;-148.88;94.24;75582.22;5036878;28;20116;-89
2023/03/08 07:38:33;;;;;;;54.47;17.85;;;;;;;-148.88;92.75;75505.06;5054096;28;20071;-87
2023/03/08 07:40:59;;;;;;;51.45;17.17;;;;;;;-148.88;92.04;75478.66;5035996;28;20060;-87
2023/03/08 07:43:24;;;;;;;53.97;17.73;;;;;;;-148.88;91.48;75511.16;5039850;28;20016;-86
2023/03/08 07:45:50;;;;;;;54.17;17.00;;;;;;;-148.88;91.98;75488.81;5040444;28;20031;-86
2023/03/08 07:48:15;;;;;;;52.75;17.08;;;;;;;-148.88;91.90;75509.13;5040280;28;20021;-87
2023/03/08 07:50:40;;;;;;;51.33;17.27;;;;;;;-148.88;90.88;75464.44;5040826;28;20121;-88
2023/03/08 07:53:08;;;;;;;45.78;15.48;;;;;;;-148.88;90.24;75452.25;5039955;28;20120;-87
2023/03/08 07:55:36;;;;;;;46.35;15.52;;;;;;;-148.88;89.37;75444.13;5040873;28;20021;-86
2023/03/08 07:58:04;;;;;;;46.80;16.85;;;;;;;-148.88;90.97;75478.66;5060241;28;20031;-86
2023/03/08 08:00:29;;;;;;;53.67;17.80;;;;;;;-148.88;92.55;75523.34;5060411;28;20031;-86
2023/03/08 08:02:54;;;;;;;46.70;15.77;;;;;;;-148.88;92.56;75501.00;5060016;28;20073;-86
2023/03/08 08:05:20;;;;;;;52.75;17.27;;;;;;;-148.88;91.43;75484.75;5060142;28;20040;-86
2023/03/08 08:07:49;;;;;;;49.92;15.88;;;;;;;-148.88;92.04;75464.44;5060543;28;20029;-87
2023/03/08 08:10:15;;;;;;;49.33;17.15;;;;;;;-148.88;90.09;75407.56;5041915;28;20123;-87
2023/03/08 08:12:40;;;;;;;53.10;17.83;;;;;;;-148.88;89.57;75423.81;5059726;28;20104;-87
2023/03/08 08:15:09;;;;;;;48.03;18.65;;;;;;;-148.88;89.78;75413.66;5042093;28;20021;-87
2023/03/08 08:17:34;;;;;;;50.55;17.77;;;;;;;-148.88;90.22;75431.94;5059935;28;20028;-87
2023/03/08 08:19:59;;;;;;;50.35;16.40;;;;;;;-148.88;89.70;75403.50;5059813;28;20029;-87
2023/03/08 08:22:25;;;;;;;48.60;18.38;;;;;;;-148.88;89.44;75391.31;5041660;28;20126;-86
2023/03/08 08:24:50;;;;;;;53.88;18.40;;;;;;;-148.88;89.13;75387.25;5059854;28;20013;-87
2023/03/08 08:27:15;;;;;;;44.15;15.13;;;;;;;-148.88;88.19;75362.88;5042020;28;20021;-87
2023/03/08 08:29:45;;;;;;;52.38;17.23;;;;;;;-148.88;89.69;75395.38;5058970;28;20025;-87
2023/03/08 08:32:10;;;;;;;52.30;17.75;;;;;;;-148.88;88.97;75356.78;5041534;28;20024;-87
2023/03/08 08:34:39;;;;;;;46.35;17.13;;;;;;;-148.88;88.09;75338.50;5059235;28;20025;-87
2023/03/08 08:37:04;;;;;;;52.90;18.10;;;;;;;-148.88;88.57;75362.88;5059478;28;20501;-87
2023/03/08 08:39:29;;;;;;;56.13;18.80;;;;;;;-148.88;89.85;75387.25;5059494;28;20029;-87
2023/03/08 08:41:55;;;;;;;52.13;20.00;;;;;;;-148.88;90.44;75415.69;5059547;28;20468;-86
2023/03/08 08:44:20;;;;;;;51.42;18.33;;;;;;;-148.88;91.39;75401.47;5071430;22;20412;-86
2023/03/08 08:46:45;;;;;;;52.15;17.90;;;;;;;-148.88;91.55;75433.97;5055804;28;20025;-87
2023/03/08 08:49:11;;;;;;;51.55;18.25;;;;;;;-148.88;90.21;75356.78;5055919;28;20021;-86
2023/03/08 08:51:36;;;;;;;53.08;18.27;;;;;;;-148.88;89.36;75354.75;5055729;28;20028;-86
2023/03/08 08:54:01;;;;;;;68.68;20.27;;;;;;;-148.88;90.48;75377.09;5053483;28;20033;-86
2023/03/08 08:56:27;;;;;;;49.35;19.15;;;;;;;-148.88;91.42;75395.38;5055858;28;20029;-86
2023/03/08 08:58:55;;;;;;;50.63;16.80;;;;;;;-148.88;90.64;75379.13;5055655;28;20053;-86
2023/03/08 09:01:25;;;;;;;60.53;23.95;;;;;;;-148.88;89.50;75338.50;5055399;28;20024;-86
2023/03/08 09:03:50;;;;;;;52.40;17.23;;;;;;;-148.88;91.07;75371.00;5054211;28;20021;-86
2023/03/08 09:06:20;;;;;;;52.85;21.35;;;;;;;-148.88;89.19;75299.91;5055359;28;20017;-87
2023/03/08 09:08:49;;;;;;;48.08;17.33;;;;;;;-148.88;90.48;75340.53;5058261;28;20108;-85
2023/03/08 09:11:14;;;;;;;47.67;16.67;;;;;;;-148.88;89.37;75281.66;5057024;28;20021;-86
2023/03/08 09:13:41;;;;;;;46.20;17.52;;;;;;;-148.88;88.24;75273.53;5055238;28;20428;-86
2023/03/08 09:16:16;;;;;;;53.95;19.58;;;;;;;-148.88;89.35;75295.84;5054187;28;20460;-86
2023/03/08 09:18:42;;;;;;;49.10;18.23;;;;;;;-148.88;89.97;75306.00;5055207;28;20601;-86
2023/03/08 09:21:07;;;;;;;43.63;15.70;;;;;;;-148.88;88.43;75247.13;5055448;28;20025;-86
2023/03/08 09:23:32;;;;;;;47.05;15.88;;;;;;;-148.88;87.54;75241.03;5055507;28;20013;-85
2023/03/08 09:25:58;;;;;;;54.13;19.40;;;;;;;-148.88;88.48;75261.34;5055212;28;20025;-85
2023/03/08 09:28:23;;;;;;;43.25;16.70;;;;;;;-148.88;89.26;75263.38;5053753;28;20021;-85
2023/03/08 09:30:52;;;;;;;47.58;15.27;;;;;;;-148.88;89.86;75326.31;5055135;28;20025;-85
2023/03/08 09:33:17;;;;;;;41.15;16.45;;;;;;;-148.88;89.53;75261.34;5053374;28;20029;-86
2023/03/08 09:35:43;;;;;;;38.30;15.40;;;;;;;-148.88;90.00;75289.75;5054953;28;20025;-87
2023/03/08 09:38:08;;;;;;;39.67;14.35;;;;;;;-148.88;90.10;75281.66;5054345;28;20036;-86
2023/03/08 09:40:45;;;;;;;34.83;14.75;;;;;;;-148.88;89.87;75273.53;5054504;28;20025;-86
2023/03/08 09:43:20;;;;;;;40.28;15.18;;;;;;;-148.88;90.12;75277.59;5054389;28;20466;-86
2023/03/08 09:45:51;;;;;;;40.28;14.27;;;;;;;-148.88;89.70;75273.53;5054596;28;20426;-86
2023/03/08 09:48:23;;;;;;;41.33;15.50;;;;;;;-148.88;89.92;75265.41;5054621;28;20025;-86
2023/03/08 09:50:51;;;;;;;39.38;14.45;;;;;;;-148.88;89.95;75265.41;5054242;28;20086;-86
2023/03/08 09:53:34;;;;;;;40.45;14.90;;;;;;;-148.88;91.00;75269.47;5054351;28;20191;-86
2023/03/08 09:56:18;;;;;;;42.35;14.65;;;;;;;-148.88;92.58;75330.38;5054630;28;20028;-86
2023/03/08 09:58:53;;;;;;;38.67;13.80;;;;;;;-148.88;92.73;75322.25;5054396;28;20398;-87
2023/03/08 10:01:36;;;;;;;34.85;13.88;;;;;;;-148.88;91.87;75306.00;5054316;28;20033;-87
2023/03/08 10:04:12;;;;;;;;;;;;;;;-148.88;90.99;75281.66;5054745;28;20196;-87
2023/03/08 10:07:05;;;;;;;33.92;13.35;;;;;;;-148.88;91.07;75273.53;5054353;28;20289;-87
2023/03/08 10:09:36;;;;;;;29.83;12.55;;;;;;;-148.88;91.66;75253.22;5054148;28;20514;-87
2023/03/08 10:12:21;;;;;;;33.63;12.43;;;;;;;-148.88;91.78;75289.75;5052783;28;20029;-87
2023/03/08 10:14:51;;;;;;;31.88;12.68;;;;;;;-148.88;91.36;75253.22;5054247;28;20025;-87
2023/03/08 10:17:23;;;;;;;28.88;10.63;;;;;;;-148.88;89.41;75249.16;5054371;28;20025;-86
2023/03/08 10:19:57;;;;;;;28.52;10.73;;;;;;;-148.88;90.46;75249.16;5054254;28;20024;-86
2023/03/08 10:22:26;;;;;;;24.02;10.20;;;;;;;-148.88;90.79;75330.38;5054351;28;20086;-85
2023/03/08 10:25:00;;;;;;;19.75;8.90;;;;;;;-148.88;92.30;75352.72;5054384;28;20047;-85
2023/03/08 10:27:30;;;;;;;24.08;9.90;;;;;;;-148.88;91.87;75322.25;5052957;28;20071;-86
2023/03/08 10:29:58;;;;;;;17.77;7.85;;;;;;;-148.88;88.52;75322.25;5054094;28;20024;-87
2023/03/08 10:32:25;;;;;;;18.23;6.78;;;;;;;-148.88;88.92;75358.81;5053992;28;20060;-85
2023/03/08 10:34:51;;;;;;;20.10;7.95;;;;;;;-148.88;92.02;75381.16;5054272;28;20025;-85
2023/03/08 10:37:20;;;;;;;19.13;6.90;;;;;;;-148.88;91.88;75381.16;5052781;28;20125;-86
2023/03/08 10:39:56;;;;;;;18.25;7.50;;;;;;;-148.88;92.40;75332.41;5053883;28;20100;-86
2023/03/08 10:42:24;;;;;;;22.08;8.02;;;;;;;-148.88;91.34;75308.03;5053341;28;20106;-86
2023/03/08 10:44:59;;;;;;;21.05;8.13;;;;;;;-148.88;90.92;75263.38;5052610;28;20021;-86
2023/03/08 10:47:33;;;;;;;21.73;8.25;;;;;;;-148.88;92.04;75239.00;5053961;28;20053;-85
2023/03/08 10:50:26;;;;;;;16.10;6.97;;;;;;;-148.88;91.25;75316.16;5053711;28;20029;-86
2023/03/08 10:52:52;;;;;;;14.32;6.60;;;;;;;-148.88;91.26;75281.66;5053642;28;20025;-86
2023/03/08 10:55:28;;;;;;;19.27;7.20;;;;;;;-148.88;94.09;75330.38;5053586;28;20032;-86
2023/03/08 10:58:00;;;;;;;17.40;7.00;;;;;;;-148.88;91.40;75281.66;5053354;28;20047;-86
2023/03/08 11:00:38;;;;;;;13.68;5.88;;;;;;;-148.88;90.07;75285.69;5053519;28;20020;-85
2023/03/08 11:03:17;;;;;;;12.32;5.28;;;;;;;-148.88;90.63;75314.13;5053260;28;20132;-85
2023/03/08 11:05:56;;;;;;;15.48;5.97;;;;;;;-148.88;90.65;75297.88;5053159;28;20025;-87
2023/03/08 11:08:34;;;;;;;12.57;4.63;;;;;;;-148.88;90.77;75287.72;5053304;28;20028;-85
2023/03/08 11:11:10;;;;;;;11.80;4.80;;;;;;;-148.88;90.94;75275.56;5053467;28;20017;-87
2023/03/08 11:13:41;;;;;;;13.45;5.18;;;;;;;-148.88;89.93;75310.06;5053366;28;20034;-85